sensor_id;sensor_type;location;lat;lon;timestamp;pressure;altitude;pressure_sealevel;temperature;humidity
69570;BME280;56781;42.292;23.146;2022-09-01T00:00:00;95391.09;;;13.85;99.06
69570;BME280;56781;42.292;23.146;2022-09-01T00:02:29;95404.59;;;14.06;97.38
69570;BME280;56781;42.292;23.146;2022-09-01T00:04:56;95414.50;;;13.93;98.79
69570;BME280;56781;42.292;23.146;2022-09-01T00:07:25;95377.00;;;13.49;100.00
69570;BME280;56781;42.292;23.146;2022-09-01T00:09:57;95400.22;;;13.54;100.00
69570;BME280;56781;42.292;23.146;2022-09-01T00:12:25;95380.06;;;13.30;100.00
69570;BME280;56781;42.292;23.146;2022-09-01T00:14:52;95398.00;;;13.56;100.00
69570;BME280;56781;42.292;23.146;2022-09-01T00:17:20;95383.47;;;13.48;100.00
69570;BME280;56781;42.292;23.146;2022-09-01T00:19:47;95408.09;;;13.59;100.00
69570;BME280;56781;42.292;23.146;2022-09-01T00:22:15;95410.16;;;13.71;100.00
69570;BME280;56781;42.292;23.146;2022-09-01T00:24:42;95405.84;;;13.70;100.00
69570;BME280;56781;42.292;23.146;2022-09-01T00:27:09;95382.34;;;13.58;100.00
69570;BME280;56781;42.292;23.146;2022-09-01T00:29:36;95397.47;;;13.71;100.00
69570;BME280;56781;42.292;23.146;2022-09-01T00:32:09;95386.41;;;13.64;100.00
69570;BME280;56781;42.292;23.146;2022-09-01T00:34:36;95414.22;;;13.77;100.00
69570;BME280;56781;42.292;23.146;2022-09-01T00:37:03;95393.66;;;13.72;100.00
69570;BME280;56781;42.292;23.146;2022-09-01T00:39:30;95353.66;;;13.62;100.00
69570;BME280;56781;42.292;23.146;2022-09-01T00:41:57;95408.47;;;13.96;100.00
69570;BME280;56781;42.292;23.146;2022-09-01T00:44:25;95404.56;;;14.14;100.00
69570;BME280;56781;42.292;23.146;2022-09-01T00:46:57;95370.09;;;13.69;100.00
69570;BME280;56781;42.292;23.146;2022-09-01T00:49:44;95406.34;;;13.72;100.00
69570;BME280;56781;42.292;23.146;2022-09-01T00:52:22;95378.25;;;13.52;100.00
69570;BME280;56781;42.292;23.146;2022-09-01T00:54:56;95394.44;;;13.73;100.00
69570;BME280;56781;42.292;23.146;2022-09-01T00:57:24;95384.41;;;14.21;99.76
69570;BME280;56781;42.292;23.146;2022-09-01T01:00:04;95373.09;;;14.06;98.60
69570;BME280;56781;42.292;23.146;2022-09-01T01:02:33;95383.56;;;13.69;100.00
69570;BME280;56781;42.292;23.146;2022-09-01T01:05:01;95379.69;;;13.41;100.00
69570;BME280;56781;42.292;23.146;2022-09-01T01:07:29;95414.91;;;13.65;100.00
69570;BME280;56781;42.292;23.146;2022-09-01T01:09:56;95375.72;;;13.47;100.00
69570;BME280;56781;42.292;23.146;2022-09-01T01:12:23;95419.81;;;13.63;100.00
69570;BME280;56781;42.292;23.146;2022-09-01T01:14:53;95416.81;;;13.56;100.00
69570;BME280;56781;42.292;23.146;2022-09-01T01:17:21;95370.72;;;13.19;100.00
69570;BME280;56781;42.292;23.146;2022-09-01T01:19:55;95426.38;;;13.36;100.00
69570;BME280;56781;42.292;23.146;2022-09-01T01:22:49;95407.38;;;13.24;100.00
69570;BME280;56781;42.292;23.146;2022-09-01T01:25:43;95422.25;;;13.21;100.00
69570;BME280;56781;42.292;23.146;2022-09-01T01:28:19;95430.03;;;13.14;100.00
69570;BME280;56781;42.292;23.146;2022-09-01T01:30:51;95425.44;;;13.15;100.00
69570;BME280;56781;42.292;23.146;2022-09-01T01:33:24;95424.78;;;13.18;100.00
69570;BME280;56781;42.292;23.146;2022-09-01T01:35:52;95402.34;;;13.22;100.00
69570;BME280;56781;42.292;23.146;2022-09-01T01:38:19;95392.69;;;13.21;98.89
69570;BME280;56781;42.292;23.146;2022-09-01T01:40:49;95418.16;;;13.06;100.00
69570;BME280;56781;42.292;23.146;2022-09-01T01:43:17;95409.94;;;13.20;100.00
69570;BME280;56781;42.292;23.146;2022-09-01T01:45:51;95421.16;;;13.14;100.00
69570;BME280;56781;42.292;23.146;2022-09-01T01:48:20;95408.53;;;13.14;100.00
69570;BME280;56781;42.292;23.146;2022-09-01T01:50:52;95376.63;;;12.86;100.00
69570;BME280;56781;42.292;23.146;2022-09-01T01:53:20;95395.44;;;12.86;100.00
69570;BME280;56781;42.292;23.146;2022-09-01T01:55:48;95420.88;;;12.98;100.00
69570;BME280;56781;42.292;23.146;2022-09-01T01:58:17;95396.06;;;12.66;100.00
69570;BME280;56781;42.292;23.146;2022-09-01T02:00:47;95417.53;;;12.75;100.00
69570;BME280;56781;42.292;23.146;2022-09-01T02:03:18;95396.34;;;12.47;100.00
69570;BME280;56781;42.292;23.146;2022-09-01T02:05:47;95429.56;;;12.69;100.00
69570;BME280;56781;42.292;23.146;2022-09-01T02:08:15;95434.59;;;12.61;100.00
69570;BME280;56781;42.292;23.146;2022-09-01T02:10:46;95430.34;;;12.86;100.00
69570;BME280;56781;42.292;23.146;2022-09-01T02:13:16;95405.69;;;12.84;100.00
69570;BME280;56781;42.292;23.146;2022-09-01T02:15:46;95441.09;;;13.04;100.00
69570;BME280;56781;42.292;23.146;2022-09-01T02:18:17;95367.31;;;12.49;100.00
69570;BME280;56781;42.292;23.146;2022-09-01T02:20:48;95433.19;;;12.99;100.00
69570;BME280;56781;42.292;23.146;2022-09-01T02:23:17;95440.28;;;12.86;100.00
69570;BME280;56781;42.292;23.146;2022-09-01T02:25:54;95415.78;;;12.70;100.00
69570;BME280;56781;42.292;23.146;2022-09-01T02:28:43;95411.88;;;12.76;100.00
69570;BME280;56781;42.292;23.146;2022-09-01T02:31:14;95382.47;;;12.71;100.00
69570;BME280;56781;42.292;23.146;2022-09-01T02:33:42;95441.88;;;12.78;100.00
69570;BME280;56781;42.292;23.146;2022-09-01T02:36:14;95448.19;;;12.74;100.00
69570;BME280;56781;42.292;23.146;2022-09-01T02:38:42;95433.03;;;12.69;100.00
69570;BME280;56781;42.292;23.146;2022-09-01T02:41:19;95405.84;;;12.71;100.00
69570;BME280;56781;42.292;23.146;2022-09-01T02:43:49;95405.38;;;12.77;100.00
69570;BME280;56781;42.292;23.146;2022-09-01T02:46:17;95421.16;;;13.05;100.00
69570;BME280;56781;42.292;23.146;2022-09-01T02:48:47;95383.72;;;12.91;100.00
69570;BME280;56781;42.292;23.146;2022-09-01T02:51:20;95442.34;;;13.33;100.00
69570;BME280;56781;42.292;23.146;2022-09-01T02:53:48;95436.00;;;13.46;100.00
69570;BME280;56781;42.292;23.146;2022-09-01T02:56:20;95428.75;;;13.20;100.00
69570;BME280;56781;42.292;23.146;2022-09-01T02:58:51;95407.22;;;13.20;100.00
69570;BME280;56781;42.292;23.146;2022-09-01T03:01:27;95377.84;;;12.89;100.00
69570;BME280;56781;42.292;23.146;2022-09-01T03:04:00;95436.34;;;13.01;100.00
69570;BME280;56781;42.292;23.146;2022-09-01T03:06:29;95414.69;;;12.97;100.00
69570;BME280;56781;42.292;23.146;2022-09-01T03:09:00;95414.19;;;13.21;100.00
69570;BME280;56781;42.292;23.146;2022-09-01T03:11:30;95440.09;;;13.52;100.00
69570;BME280;56781;42.292;23.146;2022-09-01T03:13:58;95416.09;;;13.12;100.00
69570;BME280;56781;42.292;23.146;2022-09-01T03:16:26;95404.56;;;12.94;100.00
69570;BME280;56781;42.292;23.146;2022-09-01T03:18:56;95416.13;;;13.03;100.00
69570;BME280;56781;42.292;23.146;2022-09-01T03:21:23;95405.38;;;12.95;100.00
69570;BME280;56781;42.292;23.146;2022-09-01T03:23:51;95420.53;;;13.08;100.00
69570;BME280;56781;42.292;23.146;2022-09-01T03:26:20;95400.94;;;12.99;100.00
69570;BME280;56781;42.292;23.146;2022-09-01T03:28:49;95408.97;;;13.16;100.00
69570;BME280;56781;42.292;23.146;2022-09-01T03:31:18;95440.59;;;13.45;100.00
69570;BME280;56781;42.292;23.146;2022-09-01T03:33:46;95442.00;;;13.43;96.94
69570;BME280;56781;42.292;23.146;2022-09-01T03:36:13;95424.63;;;13.05;98.27
69570;BME280;56781;42.292;23.146;2022-09-01T03:38:49;95430.34;;;12.86;100.00
69570;BME280;56781;42.292;23.146;2022-09-01T03:41:20;95437.13;;;12.75;100.00
69570;BME280;56781;42.292;23.146;2022-09-01T03:43:48;95423.22;;;12.56;100.00
69570;BME280;56781;42.292;23.146;2022-09-01T03:46:17;95407.88;;;12.48;100.00
69570;BME280;56781;42.292;23.146;2022-09-01T03:48:56;95426.88;;;12.95;100.00
69570;BME280;56781;42.292;23.146;2022-09-01T03:51:32;95415.50;;;12.98;96.14
69570;BME280;56781;42.292;23.146;2022-09-01T03:53:59;95421.16;;;12.53;97.65
69570;BME280;56781;42.292;23.146;2022-09-01T03:56:27;95416.06;;;12.25;100.00
69570;BME280;56781;42.292;23.146;2022-09-01T03:58:57;95400.25;;;12.15;100.00
69570;BME280;56781;42.292;23.146;2022-09-01T04:01:27;95428.22;;;12.23;100.00
69570;BME280;56781;42.292;23.146;2022-09-01T04:03:55;95441.03;;;12.34;100.00
69570;BME280;56781;42.292;23.146;2022-09-01T04:06:22;95422.97;;;12.09;100.00
69570;BME280;56781;42.292;23.146;2022-09-01T04:08:51;95411.88;;;11.93;100.00
69570;BME280;56781;42.292;23.146;2022-09-01T04:11:23;95459.41;;;12.10;100.00
69570;BME280;56781;42.292;23.146;2022-09-01T04:13:51;95426.56;;;12.04;100.00
69570;BME280;56781;42.292;23.146;2022-09-01T04:16:25;95420.13;;;12.05;100.00
69570;BME280;56781;42.292;23.146;2022-09-01T04:19:13;95432.44;;;12.06;100.00
69570;BME280;56781;42.292;23.146;2022-09-01T04:21:48;95428.38;;;12.26;100.00
69570;BME280;56781;42.292;23.146;2022-09-01T04:24:23;95446.09;;;12.53;100.00
69570;BME280;56781;42.292;23.146;2022-09-01T04:26:51;95432.69;;;12.53;100.00
69570;BME280;56781;42.292;23.146;2022-09-01T04:29:19;95418.00;;;12.51;100.00
69570;BME280;56781;42.292;23.146;2022-09-01T04:31:57;95446.44;;;12.52;100.00
69570;BME280;56781;42.292;23.146;2022-09-01T04:34:29;95442.63;;;12.53;100.00
69570;BME280;56781;42.292;23.146;2022-09-01T04:37:15;95420.66;;;12.33;100.00
69570;BME280;56781;42.292;23.146;2022-09-01T04:39:51;95417.84;;;12.47;100.00
69570;BME280;56781;42.292;23.146;2022-09-01T04:42:24;95417.53;;;12.49;100.00
69570;BME280;56781;42.292;23.146;2022-09-01T04:44:52;95453.41;;;12.96;100.00
69570;BME280;56781;42.292;23.146;2022-09-01T04:47:23;95437.94;;;12.84;100.00
69570;BME280;56781;42.292;23.146;2022-09-01T04:50:04;95422.91;;;12.66;100.00
69570;BME280;56781;42.292;23.146;2022-09-01T04:52:40;95413.59;;;12.72;100.00
69570;BME280;56781;42.292;23.146;2022-09-01T04:55:11;95406.16;;;12.69;100.00
69570;BME280;56781;42.292;23.146;2022-09-01T04:57:45;95432.09;;;12.82;100.00
69570;BME280;56781;42.292;23.146;2022-09-01T05:00:18;95368.56;;;12.69;100.00
69570;BME280;56781;42.292;23.146;2022-09-01T05:02:59;95407.88;;;13.00;100.00
69570;BME280;56781;42.292;23.146;2022-09-01T05:05:41;95400.00;;;12.95;100.00
69570;BME280;56781;42.292;23.146;2022-09-01T05:08:13;95427.47;;;13.44;100.00
69570;BME280;56781;42.292;23.146;2022-09-01T05:10:50;95439.94;;;13.48;100.00
69570;BME280;56781;42.292;23.146;2022-09-01T05:13:19;95440.66;;;13.75;100.00
69570;BME280;56781;42.292;23.146;2022-09-01T05:15:59;95407.75;;;13.69;100.00
69570;BME280;56781;42.292;23.146;2022-09-01T05:18:27;95373.66;;;13.52;100.00
69570;BME280;56781;42.292;23.146;2022-09-01T05:20:54;95397.97;;;13.65;100.00
69570;BME280;56781;42.292;23.146;2022-09-01T05:23:23;95419.09;;;13.84;100.00
69570;BME280;56781;42.292;23.146;2022-09-01T05:25:52;95428.28;;;13.83;100.00
69570;BME280;56781;42.292;23.146;2022-09-01T05:28:21;95418.31;;;13.83;100.00
69570;BME280;56781;42.292;23.146;2022-09-01T05:30:52;95440.72;;;14.05;100.00
69570;BME280;56781;42.292;23.146;2022-09-01T05:33:20;95419.81;;;14.02;100.00
69570;BME280;56781;42.292;23.146;2022-09-01T05:35:54;95413.72;;;14.43;100.00
69570;BME280;56781;42.292;23.146;2022-09-01T05:38:23;95436.91;;;14.65;100.00
69570;BME280;56781;42.292;23.146;2022-09-01T05:40:59;95427.13;;;14.60;100.00
69570;BME280;56781;42.292;23.146;2022-09-01T05:43:30;95425.56;;;14.51;100.00
69570;BME280;56781;42.292;23.146;2022-09-01T05:45:58;95415.22;;;14.61;100.00
69570;BME280;56781;42.292;23.146;2022-09-01T05:48:33;95417.06;;;14.70;100.00
69570;BME280;56781;42.292;23.146;2022-09-01T05:51:06;95439.31;;;14.88;100.00
69570;BME280;56781;42.292;23.146;2022-09-01T05:53:48;95430.41;;;15.08;100.00
69570;BME280;56781;42.292;23.146;2022-09-01T05:56:21;95429.22;;;14.97;100.00
69570;BME280;56781;42.292;23.146;2022-09-01T05:58:49;95439.84;;;15.14;100.00
69570;BME280;56781;42.292;23.146;2022-09-01T06:01:36;95427.69;;;15.29;100.00
69570;BME280;56781;42.292;23.146;2022-09-01T06:04:08;95377.53;;;15.28;98.97
69570;BME280;56781;42.292;23.146;2022-09-01T06:06:41;95410.47;;;15.67;97.61
69570;BME280;56781;42.292;23.146;2022-09-01T06:09:32;95408.50;;;15.55;99.55
69570;BME280;56781;42.292;23.146;2022-09-01T06:11:59;95433.03;;;15.95;99.92
69570;BME280;56781;42.292;23.146;2022-09-01T06:14:28;95416.63;;;16.13;96.72
69570;BME280;56781;42.292;23.146;2022-09-01T06:16:55;95425.59;;;16.17;95.85
69570;BME280;56781;42.292;23.146;2022-09-01T06:19:22;95415.91;;;16.40;95.92
69570;BME280;56781;42.292;23.146;2022-09-01T06:21:49;95385.75;;;16.38;94.54
69570;BME280;56781;42.292;23.146;2022-09-01T06:24:16;95387.84;;;16.57;93.56
69570;BME280;56781;42.292;23.146;2022-09-01T06:26:43;95426.19;;;17.00;92.05
69570;BME280;56781;42.292;23.146;2022-09-01T06:29:11;95400.22;;;17.11;91.05
69570;BME280;56781;42.292;23.146;2022-09-01T06:31:41;95411.22;;;17.46;90.37
69570;BME280;56781;42.292;23.146;2022-09-01T06:34:10;95412.69;;;17.88;89.70
69570;BME280;56781;42.292;23.146;2022-09-01T06:36:45;95379.69;;;17.98;87.38
69570;BME280;56781;42.292;23.146;2022-09-01T06:39:14;95372.66;;;17.65;85.12
69570;BME280;56781;42.292;23.146;2022-09-01T06:41:50;95401.53;;;18.05;87.40
69570;BME280;56781;42.292;23.146;2022-09-01T06:44:19;95370.06;;;18.16;86.38
69570;BME280;56781;42.292;23.146;2022-09-01T06:46:50;95371.38;;;18.42;85.82
69570;BME280;56781;42.292;23.146;2022-09-01T06:49:19;95404.31;;;18.76;85.57
69570;BME280;56781;42.292;23.146;2022-09-01T06:51:48;95401.88;;;19.10;85.58
69570;BME280;56781;42.292;23.146;2022-09-01T06:54:17;95389.09;;;19.30;82.40
69570;BME280;56781;42.292;23.146;2022-09-01T06:56:47;95387.97;;;19.54;81.04
69570;BME280;56781;42.292;23.146;2022-09-01T06:59:18;95379.44;;;19.52;80.15
69570;BME280;56781;42.292;23.146;2022-09-01T07:01:45;95386.09;;;19.77;81.93
69570;BME280;56781;42.292;23.146;2022-09-01T07:04:28;95390.44;;;20.05;80.92
69570;BME280;56781;42.292;23.146;2022-09-01T07:06:57;95350.31;;;20.21;78.81
69570;BME280;56781;42.292;23.146;2022-09-01T07:09:45;95353.84;;;20.52;77.27
69570;BME280;56781;42.292;23.146;2022-09-01T07:12:31;95380.38;;;20.85;76.37
69570;BME280;56781;42.292;23.146;2022-09-01T07:14:59;95382.63;;;20.53;77.85
69570;BME280;56781;42.292;23.146;2022-09-01T07:17:49;95348.09;;;20.87;76.62
69570;BME280;56781;42.292;23.146;2022-09-01T07:20:18;95340.06;;;20.64;76.68
69570;BME280;56781;42.292;23.146;2022-09-01T07:22:51;95361.06;;;20.67;76.04
69570;BME280;56781;42.292;23.146;2022-09-01T07:25:37;95347.75;;;20.58;76.82
69570;BME280;56781;42.292;23.146;2022-09-01T07:28:25;95371.47;;;20.88;78.27
69570;BME280;56781;42.292;23.146;2022-09-01T07:31:06;95360.09;;;21.13;76.36
69570;BME280;56781;42.292;23.146;2022-09-01T07:33:57;95376.09;;;21.18;76.68
69570;BME280;56781;42.292;23.146;2022-09-01T07:36:44;95377.84;;;21.37;74.41
69570;BME280;56781;42.292;23.146;2022-09-01T07:39:31;95389.69;;;21.52;75.65
69570;BME280;56781;42.292;23.146;2022-09-01T07:42:18;95388.91;;;21.92;73.28
69570;BME280;56781;42.292;23.146;2022-09-01T07:45:07;95370.44;;;22.16;71.47
69570;BME280;56781;42.292;23.146;2022-09-01T07:47:51;95373.00;;;22.49;71.08
69570;BME280;56781;42.292;23.146;2022-09-01T07:50:21;95382.31;;;22.41;72.09
69570;BME280;56781;42.292;23.146;2022-09-01T07:53:05;95380.91;;;22.65;71.04
69570;BME280;56781;42.292;23.146;2022-09-01T07:55:32;95347.03;;;22.77;70.28
69570;BME280;56781;42.292;23.146;2022-09-01T07:58:01;95337.66;;;22.71;69.95
69570;BME280;56781;42.292;23.146;2022-09-01T08:00:28;95352.59;;;22.95;68.48
69570;BME280;56781;42.292;23.146;2022-09-01T08:02:57;95354.09;;;22.85;69.41
69570;BME280;56781;42.292;23.146;2022-09-01T08:05:25;95341.75;;;23.06;69.33
69570;BME280;56781;42.292;23.146;2022-09-01T08:07:53;95366.97;;;22.81;68.40
69570;BME280;56781;42.292;23.146;2022-09-01T08:10:21;95320.88;;;22.69;70.02
69570;BME280;56781;42.292;23.146;2022-09-01T08:12:49;95366.25;;;22.91;70.24
69570;BME280;56781;42.292;23.146;2022-09-01T08:15:24;95364.84;;;23.30;67.69
69570;BME280;56781;42.292;23.146;2022-09-01T08:18:11;95369.47;;;23.15;67.93
69570;BME280;56781;42.292;23.146;2022-09-01T08:20:41;95360.13;;;23.19;68.32
69570;BME280;56781;42.292;23.146;2022-09-01T08:23:14;95358.63;;;23.43;67.70
69570;BME280;56781;42.292;23.146;2022-09-01T08:26:12;95353.97;;;23.51;66.72
69570;BME280;56781;42.292;23.146;2022-09-01T08:28:41;95323.13;;;23.43;65.80
69570;BME280;56781;42.292;23.146;2022-09-01T08:31:21;95352.06;;;23.77;65.71
69570;BME280;56781;42.292;23.146;2022-09-01T08:33:50;95340.72;;;23.67;66.19
69570;BME280;56781;42.292;23.146;2022-09-01T08:36:18;95346.97;;;23.72;63.93
69570;BME280;56781;42.292;23.146;2022-09-01T08:38:51;95313.41;;;23.71;64.14
69570;BME280;56781;42.292;23.146;2022-09-01T08:46:47;95332.16;;;23.91;63.51
69570;BME280;56781;42.292;23.146;2022-09-01T08:49:22;95314.97;;;24.08;64.26
69570;BME280;56781;42.292;23.146;2022-09-01T08:52:07;95322.78;;;24.06;61.12
69570;BME280;56781;42.292;23.146;2022-09-01T08:54:54;95325.13;;;24.22;61.28
69570;BME280;56781;42.292;23.146;2022-09-01T08:57:28;95296.22;;;23.96;62.17
69570;BME280;56781;42.292;23.146;2022-09-01T09:00:02;95313.75;;;24.23;59.48
69570;BME280;56781;42.292;23.146;2022-09-01T09:13:10;95291.50;;;24.32;59.95
69570;BME280;56781;42.292;23.146;2022-09-01T09:16:00;95275.88;;;24.18;58.49
69570;BME280;56781;42.292;23.146;2022-09-01T09:18:47;95278.97;;;24.31;56.63
69570;BME280;56781;42.292;23.146;2022-09-01T09:21:36;95289.84;;;24.63;57.28
69570;BME280;56781;42.292;23.146;2022-09-01T09:24:11;95266.78;;;24.61;58.88
69570;BME280;56781;42.292;23.146;2022-09-01T09:26:48;95277.78;;;24.36;57.66
69570;BME280;56781;42.292;23.146;2022-09-01T09:29:16;95284.81;;;24.47;60.06
69570;BME280;56781;42.292;23.146;2022-09-01T09:31:44;95242.25;;;24.32;58.29
69570;BME280;56781;42.292;23.146;2022-09-01T09:34:30;95240.25;;;24.47;58.19
69570;BME280;56781;42.292;23.146;2022-09-01T09:37:22;95269.47;;;24.79;58.72
69570;BME280;56781;42.292;23.146;2022-09-01T09:40:08;95231.16;;;24.71;57.44
69570;BME280;56781;42.292;23.146;2022-09-01T09:42:40;95242.53;;;24.66;58.73
69570;BME280;56781;42.292;23.146;2022-09-01T09:45:24;95260.84;;;24.84;57.78
69570;BME280;56781;42.292;23.146;2022-09-01T09:47:56;95267.84;;;24.88;59.26
69570;BME280;56781;42.292;23.146;2022-09-01T09:53:28;95231.94;;;24.72;59.83
69570;BME280;56781;42.292;23.146;2022-09-01T09:56:17;95231.56;;;24.73;62.71
69570;BME280;56781;42.292;23.146;2022-09-01T09:58:47;95246.59;;;25.14;60.35
69570;BME280;56781;42.292;23.146;2022-09-01T10:03:57;95238.78;;;25.09;64.51
69570;BME280;56781;42.292;23.146;2022-09-01T10:06:43;95241.13;;;25.14;59.62
69570;BME280;56781;42.292;23.146;2022-09-01T10:11:51;95204.13;;;24.84;58.40
69570;BME280;56781;42.292;23.146;2022-09-01T10:14:28;95230.97;;;25.07;58.67
69570;BME280;56781;42.292;23.146;2022-09-01T10:17:37;95231.69;;;25.22;59.89
69570;BME280;56781;42.292;23.146;2022-09-01T10:20:17;95183.88;;;25.27;56.50
69570;BME280;56781;42.292;23.146;2022-09-01T10:22:47;95213.53;;;25.42;54.99
69570;BME280;56781;42.292;23.146;2022-09-01T10:25:23;95222.50;;;25.47;53.42
69570;BME280;56781;42.292;23.146;2022-09-01T10:27:57;95218.19;;;25.46;54.84
69570;BME280;56781;42.292;23.146;2022-09-01T10:30:28;95218.19;;;25.46;55.86
69570;BME280;56781;42.292;23.146;2022-09-01T10:32:58;95220.47;;;25.58;56.05
69570;BME280;56781;42.292;23.146;2022-09-01T10:35:41;95211.50;;;25.50;53.22
69570;BME280;56781;42.292;23.146;2022-09-01T10:38:16;95159.56;;;25.36;54.05
69570;BME280;56781;42.292;23.146;2022-09-01T10:40:48;95201.03;;;25.83;53.28
69570;BME280;56781;42.292;23.146;2022-09-01T10:43:44;95181.53;;;25.74;54.40
69570;BME280;56781;42.292;23.146;2022-09-01T10:48:55;95206.00;;;25.99;52.32
69570;BME280;56781;42.292;23.146;2022-09-01T10:54:04;95188.00;;;25.94;54.35
69570;BME280;56781;42.292;23.146;2022-09-01T10:56:43;95175.06;;;25.95;54.06
69570;BME280;56781;42.292;23.146;2022-09-01T11:02:13;95199.53;;;26.20;50.47
69570;BME280;56781;42.292;23.146;2022-09-01T11:07:31;95176.31;;;25.90;51.70
69570;BME280;56781;42.292;23.146;2022-09-01T11:15:47;95180.97;;;26.31;52.83
69570;BME280;56781;42.292;23.146;2022-09-01T11:18:23;95186.59;;;26.55;53.58
69570;BME280;56781;42.292;23.146;2022-09-01T11:20:53;95167.38;;;26.55;53.15
69570;BME280;56781;42.292;23.146;2022-09-01T11:23:25;95166.34;;;26.72;52.66
69570;BME280;56781;42.292;23.146;2022-09-01T11:28:44;95144.59;;;26.58;51.98
69570;BME280;56781;42.292;23.146;2022-09-01T11:33:56;95147.22;;;26.65;51.47
69570;BME280;56781;42.292;23.146;2022-09-01T11:36:32;95142.91;;;26.64;51.91
69570;BME280;56781;42.292;23.146;2022-09-01T11:39:14;95127.53;;;26.70;52.21
69570;BME280;56781;42.292;23.146;2022-09-01T11:42:09;95107.91;;;26.71;55.45
69570;BME280;56781;42.292;23.146;2022-09-01T11:44:48;95129.59;;;26.89;52.30
69570;BME280;56781;42.292;23.146;2022-09-01T11:47:34;95123.84;;;26.80;51.63
69570;BME280;56781;42.292;23.146;2022-09-01T11:50:22;95106.44;;;26.63;56.36
69570;BME280;56781;42.292;23.146;2022-09-01T11:55:40;95080.31;;;26.21;54.13
69570;BME280;56781;42.292;23.146;2022-09-01T11:58:13;95117.09;;;26.27;51.10
69570;BME280;56781;42.292;23.146;2022-09-01T12:00:56;95058.97;;;26.05;51.56
69570;BME280;56781;42.292;23.146;2022-09-01T12:03:27;95117.25;;;26.43;50.80
69570;BME280;56781;42.292;23.146;2022-09-01T12:05:58;95088.09;;;26.26;51.03
69570;BME280;56781;42.292;23.146;2022-09-01T12:08:39;95065.84;;;26.20;51.18
69570;BME280;56781;42.292;23.146;2022-09-01T12:11:09;95117.38;;;26.67;49.66
69570;BME280;56781;42.292;23.146;2022-09-01T12:13:38;95110.34;;;26.66;48.89
69570;BME280;56781;42.292;23.146;2022-09-01T12:16:08;95092.72;;;26.63;48.85
69570;BME280;56781;42.292;23.146;2022-09-01T12:18:48;95077.47;;;26.59;49.70
69570;BME280;56781;42.292;23.146;2022-09-01T12:21:40;95079.22;;;26.45;48.39
69570;BME280;56781;42.292;23.146;2022-09-01T12:24:20;95105.31;;;26.61;51.03
69570;BME280;56781;42.292;23.146;2022-09-01T12:26:50;95058.06;;;26.42;50.89
69570;BME280;56781;42.292;23.146;2022-09-01T12:29:17;95108.41;;;26.90;50.95
69570;BME280;56781;42.292;23.146;2022-09-01T12:31:47;95103.47;;;27.05;49.06
69570;BME280;56781;42.292;23.146;2022-09-01T12:34:36;95095.38;;;26.94;45.19
69570;BME280;56781;42.292;23.146;2022-09-01T12:37:27;95098.91;;;26.94;46.42
69570;BME280;56781;42.292;23.146;2022-09-01T12:39:55;95085.72;;;26.86;48.67
69570;BME280;56781;42.292;23.146;2022-09-01T12:42:27;95081.19;;;26.99;46.51
69570;BME280;56781;42.292;23.146;2022-09-01T12:45:09;95087.91;;;26.94;46.45
69570;BME280;56781;42.292;23.146;2022-09-01T12:52:47;95065.56;;;26.69;47.58
69570;BME280;56781;42.292;23.146;2022-09-01T12:55:22;95052.72;;;26.62;47.08
69570;BME280;56781;42.292;23.146;2022-09-01T12:58:11;95091.88;;;26.93;46.00
69570;BME280;56781;42.292;23.146;2022-09-01T13:01:04;95085.16;;;26.94;45.54
69570;BME280;56781;42.292;23.146;2022-09-01T13:04:05;95080.97;;;26.86;46.65
69570;BME280;56781;42.292;23.146;2022-09-01T13:06:33;95085.44;;;27.04;48.24
69570;BME280;56781;42.292;23.146;2022-09-01T13:09:00;95081.78;;;27.10;46.81
69570;BME280;56781;42.292;23.146;2022-09-01T13:11:27;95047.31;;;26.82;47.35
69570;BME280;56781;42.292;23.146;2022-09-01T13:14:15;95089.34;;;27.03;49.95
69570;BME280;56781;42.292;23.146;2022-09-01T13:16:42;95052.41;;;26.57;49.35
69570;BME280;56781;42.292;23.146;2022-09-01T13:19:09;95082.22;;;26.82;54.31
69570;BME280;56781;42.292;23.146;2022-09-01T13:21:36;95034.59;;;26.68;52.14
69570;BME280;56781;42.292;23.146;2022-09-01T13:24:04;95086.91;;;26.58;54.48
69570;BME280;56781;42.292;23.146;2022-09-01T13:26:32;95080.88;;;26.39;49.85
69570;BME280;56781;42.292;23.146;2022-09-01T13:28:59;95072.25;;;26.37;51.18
69570;BME280;56781;42.292;23.146;2022-09-01T13:31:27;95038.75;;;26.22;48.55
69570;BME280;56781;42.292;23.146;2022-09-01T13:33:57;95038.34;;;26.24;49.16
69570;BME280;56781;42.292;23.146;2022-09-01T13:36:43;95080.75;;;26.46;50.47
69570;BME280;56781;42.292;23.146;2022-09-01T13:39:17;95064.78;;;26.11;49.77
69570;BME280;56781;42.292;23.146;2022-09-01T13:41:44;95086.25;;;26.46;51.89
69570;BME280;56781;42.292;23.146;2022-09-01T13:44:12;95062.53;;;26.02;51.30
69570;BME280;56781;42.292;23.146;2022-09-01T13:46:39;95085.63;;;26.04;56.04
69570;BME280;56781;42.292;23.146;2022-09-01T13:49:27;95090.59;;;25.79;53.41
69570;BME280;56781;42.292;23.146;2022-09-01T13:52:14;95091.53;;;25.65;53.42
69570;BME280;56781;42.292;23.146;2022-09-01T13:54:41;95091.88;;;25.71;52.37
69570;BME280;56781;42.292;23.146;2022-09-01T13:57:10;95064.25;;;25.54;54.97
69570;BME280;56781;42.292;23.146;2022-09-01T13:59:37;95104.44;;;25.68;53.72
69570;BME280;56781;42.292;23.146;2022-09-01T14:02:04;95109.94;;;25.64;54.72
69570;BME280;56781;42.292;23.146;2022-09-01T14:04:31;95043.81;;;25.21;58.24
69570;BME280;56781;42.292;23.146;2022-09-01T14:06:59;95088.47;;;25.14;56.94
69570;BME280;56781;42.292;23.146;2022-09-01T14:09:26;95073.03;;;24.90;58.98
69570;BME280;56781;42.292;23.146;2022-09-01T14:11:53;95122.28;;;24.93;58.12